CA-0477 weather

Williams Lake / Clusko Logging
British Columbia, Canada

Public forecast

Using degrees Celsius for public forecast. Weather courtesy of forecast.io.

METAR (pilot weather report)

Closest report is Williams Lake Airport, 4.1 nm (7.6 km) ENE. Retrieved 2019/08/24 23:43 UTC (2 minutes ago):

CYWL 242343Z 25006KT 200V260 15SM -SHRA BKN050CB 15/09 A2991 RMK CB7 SLP135 DENSITY ALT 3900FT

TAF (pilot weather forecast)

Closest forecast is Williams Lake Airport, 4.1 nm (7.6 km) ENE. Retrieved 2019/08/24 19:39 UTC (4 hours ago):

TAF CYWL 241838Z 2419/2507 VRB03KT P6SM SCT040 BKN110 FM242300 30005KT P6SM BKN060 TEMPO 2423/2507 P6SM -SHRA RMK NXT FCST BY 250100Z